Terminal Aerodrome Forecast
Issued by NWS

Home | Current Version | Previous Version | Text Only | Print | Product List | Glossary On
Versions: 1 2 3 4 5 6 7 8 9 10 11 12 13 14 15 16 17 18 19 20 21 22 23 24 25 26 27 28 29 30 31 32
000
FTUS45 KBOU 241243 AAA
TAFBJC
TAF AMD
KBJC 241243Z 2413/2512 35022G32KT P6SM VCSH SCT035 BKN040
     FM241500 34014G22KT P6SM SCT050 BKN100
     FM242000 10007KT P6SM FEW050 SCT120
     FM250100 VRB05KT P6SM FEW100
     FM250400 25006KT P6SM FEW250=

USA.gov is the U.S. government's official web portal to all federal, state and local government web resources and services.